Time;durP1;ratioP1;P1;durP2;ratioP2;P2;SDS_P1;SDS_P2;PMS_P1;PMS_P2;Temp;Humidity;BMP_temperature;BMP_pressure;BME280_temperature;BME280_humidity;BME280_pressure;Samples;Min_cycle;Max_cycle;Signal;HPM_P1;HPM_P2
2023/07/25 00:01:05;;;;;;;0.80;0.50;;;18.10;99.90;;;;;;5077002;28;20435;-49
2023/07/25 00:03:32;;;;;;;1.60;0.60;;;18.00;99.90;;;;;;5078071;28;20839;-56
2023/07/25 00:06:02;;;;;;;0.82;0.60;;;18.00;99.90;;;;;;5077654;28;20797;-55
2023/07/25 00:08:29;;;;;;;1.10;0.50;;;18.00;99.90;;;;;;5077719;28;20466;-53
2023/07/25 00:10:56;;;;;;;1.00;0.63;;;18.00;99.90;;;;;;5076994;28;20423;-51
2023/07/25 00:13:23;;;;;;;0.90;0.60;;;18.00;99.90;;;;;;5077534;28;20435;-54
2023/07/25 00:15:52;;;;;;;0.70;0.50;;;18.00;99.90;;;;;;5077998;28;20929;-49
2023/07/25 00:18:19;;;;;;;0.90;0.50;;;18.00;99.90;;;;;;5077783;28;20484;-54
2023/07/25 00:20:46;;;;;;;0.90;0.60;;;18.00;99.90;;;;;;5078078;28;20427;-54
2023/07/25 00:23:13;;;;;;;0.90;0.60;;;18.00;99.90;;;;;;5076911;28;20423;-55
2023/07/25 00:25:40;;;;;;;0.80;0.60;;;18.00;99.90;;;;;;5077336;28;20477;-50
2023/07/25 00:28:07;;;;;;;0.90;0.60;;;18.00;99.90;;;;;;5076980;28;20431;-53
2023/07/25 00:30:34;;;;;;;1.02;0.60;;;18.00;99.60;;;;;;5076773;28;20485;-55
2023/07/25 00:33:02;;;;;;;0.80;0.50;;;18.10;99.10;;;;;;5076648;28;20513;-57
2023/07/25 00:35:29;;;;;;;1.15;0.55;;;18.10;96.00;;;;;;5077094;28;20720;-55
2023/07/25 00:37:56;;;;;;;1.00;0.60;;;18.10;96.20;;;;;;5076644;28;20794;-53
2023/07/25 00:40:23;;;;;;;0.90;0.50;;;18.10;92.30;;;;;;5076900;28;20431;-53
2023/07/25 00:42:55;;;;;;;2.30;0.60;;;18.20;91.50;;;;;;5076387;28;20517;-56
2023/07/25 00:45:22;;;;;;;1.65;0.60;;;18.20;83.30;;;;;;5076154;28;20431;-54
2023/07/25 00:47:49;;;;;;;0.90;0.50;;;18.30;68.50;;;;;;5076210;28;21299;-52
2023/07/25 00:50:18;;;;;;;0.82;0.50;;;18.30;60.10;;;;;;5076184;28;20473;-56
2023/07/25 00:52:45;;;;;;;0.77;0.50;;;18.20;65.90;;;;;;5076570;28;20427;-53
2023/07/25 00:55:13;;;;;;;0.90;0.60;;;18.20;75.10;;;;;;5077338;28;20419;-52
2023/07/25 00:57:40;;;;;;;0.90;0.60;;;18.20;80.10;;;;;;5077107;28;20708;-56
2023/07/25 01:00:11;;;;;;;1.17;0.60;;;18.20;77.80;;;;;;5077310;28;20427;-54
2023/07/25 01:02:38;;;;;;;1.30;0.50;;;18.10;81.00;;;;;;5076860;28;20831;-54
2023/07/25 01:05:05;;;;;;;0.80;0.50;;;18.10;75.50;;;;;;5076764;28;20846;-56
2023/07/25 01:07:34;;;;;;;0.82;0.50;;;18.00;75.20;;;;;;5076195;28;20436;-56
2023/07/25 01:10:01;;;;;;;0.90;0.60;;;18.00;78.90;;;;;;5076807;28;20793;-55
2023/07/25 01:12:28;;;;;;;1.30;0.50;;;18.00;84.00;;;;;;5075020;28;20435;-51
2023/07/25 01:14:55;;;;;;;0.80;0.50;;;17.90;81.00;;;;;;5076801;28;20428;-54
2023/07/25 01:17:25;;;;;;;1.60;0.60;;;17.80;92.20;;;;;;5075802;28;20474;-56
2023/07/25 01:19:53;;;;;;;1.33;0.60;;;17.80;99.90;;;;;;5076733;28;20423;-55
2023/07/25 01:22:22;;;;;;;0.90;0.60;;;17.80;97.20;;;;;;5076801;28;20486;-52
2023/07/25 01:24:50;;;;;;;0.70;0.50;;;17.80;95.80;;;;;;5074943;28;20432;-50
2023/07/25 01:27:18;;;;;;;0.70;0.50;;;17.80;91.30;;;;;;5076246;28;20427;-54
2023/07/25 01:29:45;;;;;;;0.90;0.60;;;17.80;88.40;;;;;;5076454;28;20708;-56
2023/07/25 01:32:12;;;;;;;0.90;0.50;;;17.80;77.10;;;;;;5075377;28;20431;-53
2023/07/25 01:34:39;;;;;;;1.20;0.60;;;17.90;69.80;;;;;;5075978;28;20782;-55
2023/07/25 01:37:07;;;;;;;1.30;0.55;;;18.00;62.30;;;;;;5076192;28;20782;-53
2023/07/25 01:39:34;;;;;;;0.80;0.50;;;18.10;54.10;;;;;;5076602;28;20723;-55
2023/07/25 01:42:03;;;;;;;0.98;0.50;;;18.10;45.90;;;;;;5076662;28;20420;-54
2023/07/25 01:44:30;;;;;;;0.90;0.60;;;18.10;50.30;;;;;;5076259;28;20427;-53
2023/07/25 01:46:57;;;;;;;0.90;0.60;;;18.10;66.10;;;;;;5075955;28;20721;-53
2023/07/25 01:49:24;;;;;;;0.98;0.57;;;18.00;74.40;;;;;;5075861;28;20467;-54
2023/07/25 01:51:51;;;;;;;1.00;0.60;;;18.00;83.50;;;;;;5076150;28;20866;-55
2023/07/25 01:54:18;;;;;;;0.90;0.60;;;17.90;93.10;;;;;;5075711;28;20489;-52
2023/07/25 01:56:45;;;;;;;1.30;0.50;;;18.00;93.20;;;;;;5075896;28;20481;-57
2023/07/25 01:59:13;;;;;;;1.90;0.50;;;18.10;90.90;;;;;;5076057;28;20415;-55
2023/07/25 02:01:40;;;;;;;1.10;0.70;;;18.10;56.70;;;;;;5075757;28;20533;-55
2023/07/25 02:04:07;;;;;;;0.90;0.60;;;18.00;49.30;;;;;;5075983;28;20419;-55
2023/07/25 02:06:34;;;;;;;0.70;0.50;;;17.90;59.10;;;;;;5075771;28;20486;-51
2023/07/25 02:09:01;;;;;;;0.75;0.50;;;17.80;65.70;;;;;;5075491;28;20485;-54
2023/07/25 02:11:28;;;;;;;0.85;0.50;;;17.70;75.50;;;;;;5074534;28;20423;-52
2023/07/25 02:13:55;;;;;;;1.10;0.50;;;17.60;83.20;;;;;;5075649;28;20420;-55
2023/07/25 02:16:23;;;;;;;0.90;0.50;;;17.60;89.60;;;;;;5075875;28;20492;-51
2023/07/25 02:18:50;;;;;;;0.93;0.60;;;17.60;94.50;;;;;;5075589;28;20419;-51
2023/07/25 02:21:17;;;;;;;1.10;0.60;;;17.50;90.30;;;;;;5075836;28;20477;-56
2023/07/25 02:23:44;;;;;;;0.90;0.60;;;17.60;86.80;;;;;;5075169;28;20783;-49
2023/07/25 02:26:11;;;;;;;1.10;0.50;;;17.60;78.80;;;;;;5075328;28;20831;-53
2023/07/25 02:28:38;;;;;;;0.90;0.50;;;17.70;83.30;;;;;;5075368;28;20493;-54
2023/07/25 02:31:05;;;;;;;0.80;0.50;;;17.70;69.60;;;;;;5075434;28;20427;-57
2023/07/25 02:33:33;;;;;;;0.90;0.60;;;17.60;72.70;;;;;;5075159;28;20473;-53
2023/07/25 02:36:00;;;;;;;1.00;0.57;;;17.60;80.40;;;;;;5074905;28;20431;-54
2023/07/25 02:38:28;;;;;;;0.80;0.50;;;17.60;80.00;;;;;;5075030;28;20419;-54
2023/07/25 02:40:55;;;;;;;0.90;0.60;;;17.60;74.80;;;;;;5074813;28;20427;-51
2023/07/25 02:43:22;;;;;;;0.80;0.50;;;17.50;85.50;;;;;;5074471;28;20488;-55
2023/07/25 02:45:49;;;;;;;1.30;0.50;;;17.60;91.60;;;;;;5074157;28;20724;-54
2023/07/25 02:48:17;;;;;;;0.75;0.60;;;17.70;85.60;;;;;;5074789;28;20549;-55
2023/07/25 02:50:45;;;;;;;1.30;0.60;;;17.70;83.60;;;;;;5074711;28;20431;-54
2023/07/25 02:53:12;;;;;;;0.90;0.50;;;17.70;63.40;;;;;;5074362;28;20419;-53
2023/07/25 02:55:40;;;;;;;0.80;0.57;;;17.70;60.70;;;;;;5075310;28;20431;-54
2023/07/25 02:58:07;;;;;;;1.25;0.70;;;17.60;71.00;;;;;;5075230;28;20712;-54
2023/07/25 03:00:34;;;;;;;1.20;0.60;;;17.60;79.00;;;;;;5074992;28;20431;-55
2023/07/25 03:03:00;;;;;;;1.20;0.50;;;17.70;88.50;;;;;;5074652;28;20427;-54
2023/07/25 03:05:28;;;;;;;1.30;0.60;;;17.80;85.80;;;;;;5073959;28;20835;-51
2023/07/25 03:07:57;;;;;;;1.00;0.60;;;17.90;75.70;;;;;;5074561;28;20501;-52
2023/07/25 03:10:24;;;;;;;1.00;0.60;;;17.90;67.50;;;;;;5074555;28;20481;-55
2023/07/25 03:12:52;;;;;;;0.70;0.50;;;18.00;61.50;;;;;;5071890;28;20450;-53
2023/07/25 03:15:20;;;;;;;0.70;0.50;;;18.20;45.90;;;;;;5074728;28;20843;-53
2023/07/25 03:17:47;;;;;;;1.38;0.60;;;18.20;32.00;;;;;;5075058;28;20466;-55
2023/07/25 03:20:14;;;;;;;1.60;0.60;;;18.20;25.20;;;;;;5074776;28;20420;-52
2023/07/25 03:22:41;;;;;;;1.53;0.60;;;18.30;21.50;;;;;;5074573;28;20427;-55
2023/07/25 03:25:10;;;;;;;1.60;0.60;;;18.40;15.10;;;;;;5073873;28;20428;-53
2023/07/25 03:27:37;;;;;;;1.20;0.50;;;18.40;20.90;;;;;;5073433;28;20427;-56
2023/07/25 03:30:07;;;;;;;1.70;0.60;;;18.30;20.40;;;;;;5073549;28;20444;-57
2023/07/25 03:32:34;;;;;;;1.30;0.60;;;18.30;27.80;;;;;;5073394;28;20478;-56
2023/07/25 03:35:01;;;;;;;0.90;0.60;;;18.20;29.20;;;;;;5075525;28;20773;-57
2023/07/25 03:37:28;;;;;;;2.90;0.60;;;18.10;40.40;;;;;;5078687;28;20791;-56
2023/07/25 03:39:55;;;;;;;3.15;0.60;;;17.90;57.90;;;;;;5078465;28;20497;-55
2023/07/25 03:42:23;;;;;;;0.77;0.50;;;17.80;65.70;;;;;;5078450;28;20435;-54
2023/07/25 03:44:51;;;;;;;0.85;0.52;;;18.00;71.10;;;;;;5077781;28;20439;-54
2023/07/25 03:47:18;;;;;;;0.90;0.50;;;18.20;42.10;;;;;;5078167;28;20481;-52
2023/07/25 03:49:46;;;;;;;0.90;0.50;;;18.30;26.60;;;;;;5077809;28;20867;-57
2023/07/25 03:52:13;;;;;;;1.30;0.60;;;18.30;25.80;;;;;;5077722;28;20533;-53
2023/07/25 03:54:40;;;;;;;1.00;0.50;;;18.20;20.60;;;;;;5078425;28;20423;-53
2023/07/25 03:57:07;;;;;;;1.20;0.60;;;18.30;19.60;;;;;;5078133;28;20835;-53
2023/07/25 03:59:35;;;;;;;1.00;0.60;;;18.30;13.20;;;;;;5077964;28;20415;-54
2023/07/25 04:02:02;;;;;;;1.38;0.50;;;18.30;14.90;;;;;;5077441;28;20617;-55
2023/07/25 04:04:29;;;;;;;1.00;0.60;;;18.20;14.00;;;;;;5077687;28;20786;-54
2023/07/25 04:06:56;;;;;;;0.83;0.50;;;18.20;14.60;;;;;;5077748;28;20912;-53
2023/07/25 04:09:23;;;;;;;1.40;0.50;;;18.10;28.20;;;;;;5078063;28;20439;-56
2023/07/25 04:11:50;;;;;;;0.90;0.50;;;18.20;27.80;;;;;;5077633;28;20427;-56
2023/07/25 04:14:17;;;;;;;1.00;0.60;;;18.20;23.60;;;;;;5076603;28;20480;-55
2023/07/25 04:16:45;;;;;;;0.97;0.60;;;18.20;22.40;;;;;;5076983;28;20427;-53
2023/07/25 04:19:12;;;;;;;0.97;0.50;;;18.10;25.00;;;;;;5077602;28;20427;-56
2023/07/25 04:21:39;;;;;;;0.80;0.50;;;18.10;33.70;;;;;;5077421;28;20431;-52
2023/07/25 04:24:07;;;;;;;0.90;0.60;;;18.10;37.20;;;;;;5077430;28;20909;-51
2023/07/25 04:26:33;;;;;;;1.10;0.50;;;18.10;32.30;;;;;;5075659;28;20424;-53
2023/07/25 04:29:00;;;;;;;1.00;0.70;;;18.00;43.50;;;;;;5077417;28;20439;-53
2023/07/25 04:31:27;;;;;;;1.30;0.60;;;17.90;61.60;;;;;;5077523;28;20431;-55
2023/07/25 04:33:56;;;;;;;1.00;0.60;;;17.80;81.10;;;;;;5075080;28;20427;-54
2023/07/25 04:36:25;;;;;;;1.00;0.60;;;17.60;90.90;;;;;;5074408;28;20916;-54
2023/07/25 04:38:51;;;;;;;1.70;0.60;;;17.60;99.80;;;;;;5075838;28;20467;-56
2023/07/25 04:41:18;;;;;;;1.80;0.80;;;17.50;99.90;;;;;;5076186;28;20423;-52
2023/07/25 04:43:45;;;;;;;1.27;0.70;;;17.40;99.90;;;;;;5075104;28;20423;-51
2023/07/25 04:46:12;;;;;;;0.80;0.60;;;17.40;99.90;;;;;;5074654;28;20435;-54
2023/07/25 04:48:39;;;;;;;0.90;0.50;;;17.50;99.90;;;;;;5075496;28;20602;-55
2023/07/25 04:51:08;;;;;;;0.80;0.60;;;17.50;99.90;;;;;;5075426;28;20442;-54
2023/07/25 04:53:35;;;;;;;1.67;0.60;;;17.60;99.90;;;;;;5075027;28;20439;-52
2023/07/25 04:56:02;;;;;;;0.98;0.63;;;17.60;99.90;;;;;;5075531;28;20420;-52
2023/07/25 04:58:29;;;;;;;0.80;0.50;;;17.70;97.30;;;;;;5074443;28;20847;-55
2023/07/25 05:00:56;;;;;;;1.52;0.60;;;17.70;94.50;;;;;;5075224;28;20431;-54
2023/07/25 05:03:25;;;;;;;0.90;0.50;;;17.70;99.00;;;;;;5074471;28;20423;-56
2023/07/25 05:05:53;;;;;;;2.30;0.60;;;17.70;91.40;;;;;;5073535;28;20431;-55
2023/07/25 05:08:21;;;;;;;2.00;0.50;;;17.70;93.80;;;;;;5073895;28;20424;-55
2023/07/25 05:10:50;;;;;;;1.08;0.68;;;17.90;91.60;;;;;;5074271;28;20432;-54
2023/07/25 05:13:17;;;;;;;1.00;0.60;;;18.10;58.20;;;;;;5073144;28;20770;-56
2023/07/25 05:15:44;;;;;;;0.88;0.60;;;18.20;43.70;;;;;;5074063;28;20794;-55
2023/07/25 05:18:11;;;;;;;0.90;0.50;;;18.20;37.20;;;;;;5074428;28;20431;-56
2023/07/25 05:20:38;;;;;;;1.73;0.60;;;18.10;41.50;;;;;;5074617;28;20428;-55
2023/07/25 05:23:06;;;;;;;1.30;0.60;;;18.00;56.60;;;;;;5075943;28;20419;-55
2023/07/25 05:25:34;;;;;;;0.75;0.50;;;18.00;74.30;;;;;;5075605;28;20442;-55
2023/07/25 05:28:01;;;;;;;1.33;0.60;;;18.00;73.50;;;;;;5075149;28;20431;-55
2023/07/25 05:30:28;;;;;;;1.13;0.60;;;17.90;80.10;;;;;;5075338;28;20435;-55
2023/07/25 05:32:55;;;;;;;1.00;0.70;;;17.90;88.80;;;;;;5074900;28;20464;-54
2023/07/25 05:35:22;;;;;;;1.30;0.60;;;17.90;91.40;;;;;;5075877;28;20494;-51
2023/07/25 05:37:49;;;;;;;1.40;0.70;;;17.80;93.90;;;;;;5074364;28;20428;-54
2023/07/25 05:40:16;;;;;;;1.40;0.70;;;17.80;94.60;;;;;;5072230;28;20427;-55
2023/07/25 05:42:44;;;;;;;1.63;0.70;;;17.80;96.20;;;;;;5072709;28;20540;-52
2023/07/25 05:45:11;;;;;;;1.50;0.60;;;17.80;97.00;;;;;;5074714;28;20431;-54
2023/07/25 05:47:38;;;;;;;3.70;0.80;;;17.80;97.90;;;;;;5073555;28;20697;-54
2023/07/25 05:50:07;;;;;;;1.48;0.70;;;17.90;94.80;;;;;;5074177;28;20431;-56
2023/07/25 05:52:34;;;;;;;2.95;0.90;;;17.90;91.60;;;;;;5072918;28;20789;-46
2023/07/25 05:55:01;;;;;;;1.90;0.80;;;17.90;99.90;;;;;;5071539;28;20470;-45
2023/07/25 05:57:28;;;;;;;3.50;0.90;;;17.90;99.90;;;;;;5068710;28;20670;-45
2023/07/25 05:59:56;;;;;;;2.43;0.87;;;17.70;99.90;;;;;;5069957;28;20424;-47
2023/07/25 06:02:23;;;;;;;1.23;0.80;;;17.40;99.90;;;;;;5069913;28;20484;-48
2023/07/25 06:04:50;;;;;;;2.00;0.77;;;17.00;99.90;;;;;;5070427;28;20423;-43
2023/07/25 06:07:17;;;;;;;1.10;0.80;;;16.90;99.90;;;;;;5069740;28;20431;-44
2023/07/25 06:09:44;;;;;;;1.40;0.90;;;16.80;99.90;;;;;;5069636;28;20638;-47
2023/07/25 06:12:13;;;;;;;1.90;0.80;;;16.80;99.90;;;;;;5071715;28;20423;-44
2023/07/25 06:14:40;;;;;;;1.50;0.90;;;16.80;99.90;;;;;;5069300;28;20530;-48
2023/07/25 06:17:09;;;;;;;1.60;0.90;;;16.70;99.90;;;;;;5070864;28;20415;-46
2023/07/25 06:19:36;;;;;;;2.20;0.90;;;16.80;99.90;;;;;;5068528;28;20457;-45
2023/07/25 06:22:03;;;;;;;1.30;0.80;;;17.00;99.90;;;;;;5070403;28;20443;-44
2023/07/25 06:24:31;;;;;;;1.20;0.80;;;17.10;99.90;;;;;;5073119;28;20431;-46
2023/07/25 06:26:58;;;;;;;1.50;0.70;;;17.20;99.90;;;;;;5060195;28;20433;-46
2023/07/25 06:29:25;;;;;;;2.15;0.60;;;17.40;99.90;;;;;;5061728;28;20478;-46
2023/07/25 06:31:52;;;;;;;1.40;0.80;;;17.50;99.90;;;;;;5063186;28;20977;-49
2023/07/25 06:34:20;;;;;;;1.00;0.70;;;17.50;99.90;;;;;;5070507;28;20431;-45
2023/07/25 06:36:47;;;;;;;0.90;0.60;;;17.50;99.90;;;;;;5061843;28;20468;-43
2023/07/25 06:39:14;;;;;;;1.60;0.70;;;17.40;99.90;;;;;;5069804;28;20489;-43
2023/07/25 06:41:41;;;;;;;1.00;0.60;;;17.50;99.90;;;;;;5070429;28;20509;-47
2023/07/25 06:44:08;;;;;;;1.00;0.60;;;17.40;99.90;;;;;;5072623;28;20423;-45
2023/07/25 06:46:35;;;;;;;1.20;0.60;;;17.40;99.90;;;;;;5067762;28;20443;-46
2023/07/25 06:49:03;;;;;;;1.58;0.68;;;17.40;99.90;;;;;;5067926;28;20430;-47
2023/07/25 06:51:34;;;;;;;1.23;0.75;;;17.40;99.90;;;;;;5068348;28;20423;-43
2023/07/25 06:54:01;;;;;;;2.50;0.60;;;17.40;99.90;;;;;;5062399;28;20519;-46
2023/07/25 06:56:28;;;;;;;3.03;0.80;;;17.40;99.90;;;;;;5070061;28;20477;-46
2023/07/25 06:58:55;;;;;;;1.10;0.60;;;17.50;99.90;;;;;;5058117;28;20446;-46
2023/07/25 07:01:27;;;;;;;1.60;0.70;;;17.60;99.90;;;;;;5067374;28;20431;-47
2023/07/25 07:03:54;;;;;;;1.20;0.60;;;17.70;99.90;;;;;;5068385;28;20427;-45
2023/07/25 07:06:21;;;;;;;1.15;0.60;;;17.60;99.90;;;;;;5070919;28;20435;-44
2023/07/25 07:08:50;;;;;;;1.10;0.60;;;17.70;99.90;;;;;;5071833;28;20431;-44
2023/07/25 07:11:17;;;;;;;1.50;0.70;;;17.70;99.90;;;;;;5069298;28;20435;-46
2023/07/25 07:13:44;;;;;;;1.05;0.70;;;17.60;99.90;;;;;;5070427;28;20481;-45
2023/07/25 07:16:11;;;;;;;2.10;0.70;;;17.50;99.90;;;;;;5069870;28;20443;-44
2023/07/25 07:18:38;;;;;;;1.13;0.70;;;17.60;99.90;;;;;;5070074;28;20447;-47
2023/07/25 07:21:06;;;;;;;1.10;0.70;;;17.70;99.90;;;;;;5072291;28;20427;-46
2023/07/25 07:23:33;;;;;;;1.85;0.80;;;17.60;99.90;;;;;;5067780;28;20435;-45
2023/07/25 07:26:01;;;;;;;1.50;0.70;;;17.50;99.90;;;;;;5067751;28;20442;-46
2023/07/25 07:28:29;;;;;;;1.67;0.80;;;17.50;99.90;;;;;;5069496;28;20428;-44
2023/07/25 07:30:56;;;;;;;1.33;1.20;;;17.30;99.90;;;;;;5071417;28;20442;-46
2023/07/25 07:33:26;;;;;;;1.40;0.98;;;17.20;99.90;;;;;;5068955;28;20871;-45
2023/07/25 07:35:53;;;;;;;1.85;1.00;;;17.20;99.90;;;;;;5069779;28;20524;-46
2023/07/25 07:38:20;;;;;;;1.40;0.80;;;17.30;99.90;;;;;;5066642;28;20431;-45
2023/07/25 07:40:47;;;;;;;2.38;0.80;;;17.20;99.90;;;;;;5070300;28;20481;-50
2023/07/25 07:43:17;;;;;;;1.63;0.80;;;17.20;99.90;;;;;;5069412;28;20442;-48
2023/07/25 07:45:44;;;;;;;1.10;0.80;;;17.20;99.90;;;;;;5059564;28;20448;-49
2023/07/25 07:48:11;;;;;;;1.50;0.90;;;17.20;99.90;;;;;;5056033;28;20431;-48
2023/07/25 07:50:38;;;;;;;2.40;0.80;;;17.20;99.90;;;;;;5069710;28;20435;-49
2023/07/25 07:53:05;;;;;;;1.30;0.80;;;17.40;99.90;;;;;;5067584;28;21032;-48
2023/07/25 07:55:32;;;;;;;2.60;0.80;;;17.60;99.90;;;;;;5070554;28;20968;-48
2023/07/25 07:58:00;;;;;;;1.33;0.60;;;17.70;99.90;;;;;;5069436;28;20913;-51
2023/07/25 08:00:28;;;;;;;1.70;0.68;;;17.80;99.90;;;;;;5069995;28;20430;-45
2023/07/25 08:02:55;;;;;;;1.60;0.60;;;17.80;99.90;;;;;;5070937;28;20430;-45
2023/07/25 08:05:23;;;;;;;0.82;0.50;;;17.90;99.90;;;;;;5069570;28;20477;-49
2023/07/25 08:07:50;;;;;;;1.00;0.50;;;18.00;99.90;;;;;;5069037;28;20540;-47
2023/07/25 08:10:17;;;;;;;1.40;0.50;;;18.20;99.90;;;;;;5068558;28;20431;-47
2023/07/25 08:12:44;;;;;;;1.20;0.50;;;18.40;99.90;;;;;;5058127;28;20499;-49
2023/07/25 08:15:11;;;;;;;0.80;0.50;;;18.80;99.90;;;;;;5067948;28;20435;-48
2023/07/25 08:17:39;;;;;;;3.00;0.60;;;18.90;99.90;;;;;;5068651;28;20414;-49
2023/07/25 08:20:07;;;;;;;1.20;0.60;;;19.00;99.90;;;;;;5069656;28;20431;-50
2023/07/25 08:22:34;;;;;;;0.98;0.60;;;19.10;99.90;;;;;;5070163;28;20452;-49
2023/07/25 08:25:01;;;;;;;0.70;0.50;;;19.10;99.90;;;;;;5063985;28;20509;-49
2023/07/25 08:27:28;;;;;;;0.90;0.50;;;19.10;99.90;;;;;;5074309;28;20500;-50
2023/07/25 08:29:56;;;;;;;0.80;0.50;;;19.20;99.90;;;;;;5073224;28;20490;-52
2023/07/25 08:32:24;;;;;;;0.83;0.50;;;19.20;99.90;;;;;;5073683;28;20423;-48
2023/07/25 08:34:53;;;;;;;1.75;0.60;;;19.20;99.90;;;;;;5072410;28;20482;-52
2023/07/25 08:37:19;;;;;;;0.85;0.50;;;19.10;99.90;;;;;;5065167;28;20485;-51
2023/07/25 08:39:46;;;;;;;0.70;0.50;;;19.30;99.90;;;;;;5070934;28;20431;-50
2023/07/25 08:42:16;;;;;;;1.73;0.50;;;19.50;99.90;;;;;;5071578;28;20536;-50
2023/07/25 08:44:43;;;;;;;0.80;0.50;;;19.90;99.90;;;;;;5067406;28;20435;-48
2023/07/25 08:47:16;;;;;;;0.80;0.50;;;20.20;99.90;;;;;;5072874;28;20638;-50
2023/07/25 08:49:47;;;;;;;0.77;0.50;;;20.60;99.90;;;;;;5069827;28;20762;-50
2023/07/25 08:52:18;;;;;;;0.80;0.55;;;20.70;99.90;;;;;;5068831;28;20443;-49
2023/07/25 08:54:46;;;;;;;0.82;0.50;;;20.80;99.90;;;;;;5073342;28;20638;-51
2023/07/25 08:57:14;;;;;;;0.80;0.50;;;20.50;99.90;;;;;;5034033;28;20842;-53
2023/07/25 08:59:41;;;;;;;0.70;0.40;;;20.40;99.90;;;;;;5033861;28;20419;-50
2023/07/25 09:02:09;;;;;;;1.00;0.50;;;20.30;99.90;;;;;;5035419;28;20966;-50
2023/07/25 09:04:36;;;;;;;1.20;0.50;;;20.20;99.90;;;;;;5056975;28;20437;-50
2023/07/25 09:07:04;;;;;;;1.30;0.50;;;20.20;99.90;;;;;;5054921;28;20437;-46
2023/07/25 09:09:32;;;;;;;0.70;0.43;;;20.10;99.90;;;;;;5075858;28;20477;-50
2023/07/25 09:11:59;;;;;;;0.80;0.50;;;19.90;99.90;;;;;;5074381;28;20431;-49
2023/07/25 09:14:26;;;;;;;0.70;0.50;;;19.70;99.90;;;;;;5072748;28;20431;-53
2023/07/25 09:16:54;;;;;;;0.80;0.50;;;19.60;99.90;;;;;;5056882;28;20429;-49
2023/07/25 09:19:21;;;;;;;0.90;0.50;;;19.70;99.90;;;;;;5057165;28;20436;-51
2023/07/25 09:21:49;;;;;;;1.07;0.50;;;19.60;99.90;;;;;;5074543;28;20490;-49
2023/07/25 09:24:16;;;;;;;0.80;0.50;;;19.60;99.90;;;;;;5059433;28;20431;-50
2023/07/25 09:26:50;;;;;;;0.85;0.50;;;19.60;99.90;;;;;;5072340;28;20615;-51
2023/07/25 09:29:18;;;;;;;0.85;0.50;;;19.80;99.90;;;;;;5072367;28;20443;-52
2023/07/25 09:31:46;;;;;;;1.52;0.50;;;20.10;99.90;;;;;;5074314;28;20443;-51
2023/07/25 09:34:17;;;;;;;2.30;0.60;;;20.10;99.90;;;;;;5064041;28;20450;-55
2023/07/25 09:36:47;;;;;;;0.90;0.60;;;20.30;99.90;;;;;;5031354;28;20458;-55
2023/07/25 09:39:14;;;;;;;0.70;0.40;;;20.50;99.90;;;;;;5031458;28;20944;-55
2023/07/25 09:41:42;;;;;;;1.55;0.50;;;20.50;99.90;;;;;;5031467;28;20426;-54
2023/07/25 09:44:10;;;;;;;0.60;0.30;;;20.40;99.90;;;;;;5035581;28;20437;-52
2023/07/25 09:46:38;;;;;;;0.68;0.40;;;20.40;99.90;;;;;;5064951;28;20446;-49
2023/07/25 09:49:05;;;;;;;0.80;0.40;;;20.70;99.90;;;;;;5072824;28;20490;-54
2023/07/25 09:51:32;;;;;;;1.15;0.40;;;20.90;99.90;;;;;;5082101;28;20446;-51
2023/07/25 09:53:59;;;;;;;1.25;0.40;;;21.00;99.90;;;;;;5090415;28;20471;-53
2023/07/25 09:56:27;;;;;;;1.60;0.52;;;21.30;99.90;;;;;;5086023;28;20495;-50
2023/07/25 09:58:56;;;;;;;0.60;0.40;;;21.30;88.20;;;;;;5054394;28;20488;-53
2023/07/25 10:01:25;;;;;;;0.60;0.32;;;21.10;60.10;;;;;;5075021;28;20487;-51
2023/07/25 10:03:53;;;;;;;0.80;0.50;;;20.90;61.30;;;;;;5091737;28;20484;-53
2023/07/25 10:06:21;;;;;;;0.80;0.50;;;21.10;44.40;;;;;;5082562;28;20433;-54
2023/07/25 10:08:48;;;;;;;1.50;0.50;;;21.30;44.40;;;;;;5085843;28;20437;-53
2023/07/25 10:11:16;;;;;;;0.70;0.50;;;21.10;12.90;;;;;;5090415;28;20693;-51
2023/07/25 10:13:43;;;;;;;1.58;0.40;;;21.10;38.50;;;;;;5093891;28;20426;-53
2023/07/25 10:16:14;;;;;;;0.90;0.40;;;21.20;53.00;;;;;;5071777;28;20439;-53
2023/07/25 10:18:42;;;;;;;1.00;0.40;;;21.60;34.20;;;;;;5066222;28;20531;-49
2023/07/25 10:21:12;;;;;;;0.60;0.40;;;21.40;20.10;;;;;;5070442;28;20415;-51
2023/07/25 10:23:39;;;;;;;0.90;0.40;;;21.70;24.90;;;;;;5069954;28;20446;-49
2023/07/25 10:26:13;;;;;;;0.70;0.40;;;22.00;22.80;;;;;;5067345;28;20551;-52
2023/07/25 10:28:41;;;;;;;0.70;0.30;;;22.30;1.00;;;;;;5072636;28;20604;-50
2023/07/25 10:31:09;;;;;;;1.85;0.50;;;22.40;1.00;;;;;;5083187;28;20522;-51
2023/07/25 10:33:39;;;;;;;1.40;0.40;;;22.70;1.00;;;;;;5067731;28;20450;-48
2023/07/25 10:36:23;;;;;;;0.70;0.40;;;22.70;1.00;;;;;;5072506;28;20423;-55
2023/07/25 10:38:52;;;;;;;0.68;0.30;;;22.50;99.90;;;;;;5083634;28;20509;-54
2023/07/25 10:41:20;;;;;;;0.60;0.40;;;22.40;1.00;;;;;;5069815;28;20438;-53
2023/07/25 10:43:58;;;;;;;1.40;0.30;;;22.60;41.60;;;;;;5069380;28;20573;-56
2023/07/25 10:46:28;;;;;;;0.80;0.40;;;22.60;1.00;;;;;;5043269;28;20439;-52
2023/07/25 10:48:56;;;;;;;0.60;0.30;;;22.30;1.00;;;;;;5048280;28;20421;-56
2023/07/25 10:51:49;;;;;;;0.50;0.30;;;22.00;56.50;;;;;;5048272;28;20451;-54
2023/07/25 10:54:18;;;;;;;0.60;0.30;;;21.70;1.00;;;;;;5051003;28;20429;-54
2023/07/25 10:57:11;;;;;;;0.70;0.30;;;21.40;99.90;;;;;;5051058;28;20460;-51
2023/07/25 10:59:57;;;;;;;0.60;0.30;;;21.40;1.00;;;;;;5050463;28;20772;-54
2023/07/25 11:02:31;;;;;;;0.90;0.50;;;21.30;1.00;;;;;;5050594;28;20779;-53
2023/07/25 11:05:20;;;;;;;0.70;0.40;;;21.20;1.00;;;;;;5048848;28;20491;-51
2023/07/25 11:07:53;;;;;;;1.00;0.40;;;21.00;1.00;;;;;;5048360;28;20433;-52
2023/07/25 11:10:21;;;;;;;1.85;0.40;;;21.10;1.00;;;;;;5049498;28;20433;-55
2023/07/25 11:12:50;;;;;;;1.20;0.50;;;21.00;1.00;;;;;;5048386;28;20429;-53
2023/07/25 11:15:17;;;;;;;0.93;0.40;;;21.20;1.00;;;;;;5048820;28;20432;-54
2023/07/25 11:17:44;;;;;;;0.70;0.40;;;21.40;1.00;;;;;;5050377;28;20487;-55
2023/07/25 11:20:13;;;;;;;0.82;0.40;;;21.90;99.90;;;;;;5048729;28;20498;-54
2023/07/25 11:22:41;;;;;;;0.70;0.40;;;22.30;99.90;;;;;;5050330;28;20433;-51
2023/07/25 11:25:09;;;;;;;0.50;0.30;;;22.70;99.90;;;;;;5047867;28;20428;-55
2023/07/25 11:27:41;;;;;;;0.60;0.30;;;22.90;1.00;;;;;;5047428;28;20433;-52
2023/07/25 11:30:16;;;;;;;0.60;0.30;;;22.90;55.00;;;;;;5045777;28;20778;-54
2023/07/25 11:32:47;;;;;;;0.50;0.30;;;23.50;29.30;;;;;;5047356;28;20844;-56
2023/07/25 11:35:15;;;;;;;0.75;0.40;;;23.50;1.00;;;;;;5048377;28;20454;-56
2023/07/25 11:37:42;;;;;;;0.50;0.30;;;24.20;99.90;;;;;;5048833;28;20433;-52
2023/07/25 11:40:16;;;;;;;0.50;0.30;;;24.50;99.90;;;;;;5050547;28;20856;-55
2023/07/25 11:42:44;;;;;;;0.50;0.30;;;24.50;99.90;;;;;;5050090;28;20809;-53
2023/07/25 11:45:12;;;;;;;0.50;0.20;;;24.30;99.90;;;;;;5061438;28;20442;-55
2023/07/25 11:47:40;;;;;;;0.50;0.30;;;24.00;99.90;;;;;;5069822;28;20857;-53
2023/07/25 11:50:09;;;;;;;0.50;0.30;;;24.00;99.90;;;;;;5070897;28;20423;-51
2023/07/25 11:52:39;;;;;;;0.40;0.30;;;23.90;99.90;;;;;;5068574;28;20435;-54
2023/07/25 11:55:08;;;;;;;0.50;0.30;;;23.70;90.20;;;;;;5071019;28;20439;-54
2023/07/25 11:57:37;;;;;;;0.50;0.20;;;23.80;99.90;;;;;;5074143;28;20909;-55
2023/07/25 12:00:06;;;;;;;0.50;0.30;;;23.50;75.20;;;;;;5073516;28;20419;-53
2023/07/25 12:02:36;;;;;;;0.90;0.33;;;23.70;60.70;;;;;;5074816;28;20481;-57
2023/07/25 12:05:04;;;;;;;0.70;0.30;;;24.00;43.10;;;;;;5075370;28;20446;-57
2023/07/25 12:07:48;;;;;;;0.50;0.30;;;23.30;27.40;;;;;;5075711;28;20423;-57
2023/07/25 12:10:26;;;;;;;0.50;0.30;;;23.10;99.90;;;;;;5074926;28;20525;-57
2023/07/25 12:12:55;;;;;;;0.50;0.20;;;22.70;26.60;;;;;;5075378;28;20568;-56
2023/07/25 12:15:23;;;;;;;0.50;0.20;;;22.10;68.40;;;;;;5073660;28;20522;-55
2023/07/25 12:17:50;;;;;;;0.40;0.20;;;21.70;99.90;;;;;;5073296;28;20457;-53
2023/07/25 12:20:19;;;;;;;0.50;0.20;;;21.50;99.90;;;;;;5073679;28;20851;-56
2023/07/25 12:22:47;;;;;;;0.40;0.20;;;21.30;99.90;;;;;;5075358;28;20430;-56
2023/07/25 12:25:18;;;;;;;0.50;0.30;;;21.30;1.00;;;;;;5076451;28;20781;-56
2023/07/25 12:27:47;;;;;;;0.40;0.20;;;21.30;1.00;;;;;;5074307;28;20527;-53
2023/07/25 12:30:15;;;;;;;1.10;0.30;;;20.40;1.00;;;;;;5072673;28;20781;-52
2023/07/25 12:32:42;;;;;;;1.50;0.22;;;20.40;1.00;;;;;;5072489;28;20948;-53
2023/07/25 12:35:10;;;;;;;0.40;0.20;;;20.40;1.00;;;;;;5075135;28;20435;-55
2023/07/25 12:37:38;;;;;;;0.73;0.30;;;20.30;1.00;;;;;;5073696;28;20449;-54
2023/07/25 12:40:07;;;;;;;1.00;0.30;;;20.20;1.00;;;;;;5072965;28;20431;-55
2023/07/25 12:42:34;;;;;;;0.80;0.28;;;20.10;1.00;;;;;;5072649;28;20427;-55
2023/07/25 12:45:05;;;;;;;0.70;0.20;;;19.90;1.00;;;;;;5073218;28;20704;-55
2023/07/25 12:47:34;;;;;;;0.40;0.20;;;20.00;1.00;;;;;;5074503;28;20827;-54
2023/07/25 12:50:01;;;;;;;0.50;0.30;;;20.40;1.00;;;;;;5072511;28;20440;-56
2023/07/25 12:52:28;;;;;;;0.40;0.20;;;21.00;1.00;;;;;;5072531;28;20627;-54